createdAt,value
2018-04-02T00:02:23.885Z,72.72
2018-04-02T00:04:52.301Z,70.20
2018-04-02T00:07:20.841Z,71.00
2018-04-02T00:09:49.425Z,60.95
2018-04-02T00:12:18.610Z,68.20
2018-04-02T00:14:47.923Z,67.87
2018-04-02T00:17:16.508Z,65.55
2018-04-02T00:19:45.008Z,62.67
2018-04-02T00:22:13.384Z,69.05
2018-04-02T00:24:41.765Z,64.78
2018-04-02T00:27:10.184Z,62.15
2018-04-02T00:29:38.705Z,66.90
2018-04-02T00:32:07.141Z,67.15
2018-04-02T00:34:36.389Z,62.22
2018-04-02T00:37:04.884Z,73.28
2018-04-02T00:39:33.454Z,67.78
2018-04-02T00:42:01.901Z,71.07
2018-04-02T00:44:30.282Z,67.28
2018-04-02T00:46:58.892Z,73.68
2018-04-02T00:49:27.365Z,65.87
2018-04-02T00:51:56.504Z,71.87
2018-04-02T00:54:24.972Z,66.68
2018-04-02T00:56:53.404Z,63.97
2018-04-02T00:59:22.592Z,60.25
2018-04-02T01:01:51.106Z,63.00
2018-04-02T01:04:20.505Z,64.43
2018-04-02T01:06:49.093Z,62.20
2018-04-02T01:09:17.495Z,64.25
2018-04-02T01:11:46.072Z,64.82
2018-04-02T01:14:14.456Z,54.53
2018-04-02T01:16:42.927Z,67.15
2018-04-02T01:19:11.494Z,62.25
2018-04-02T01:21:39.915Z,65.45
2018-04-02T01:24:08.455Z,63.53
2018-04-02T01:26:37.676Z,56.90
2018-04-02T01:29:06.343Z,63.10
2018-04-02T01:31:34.728Z,61.10
2018-04-02T01:34:03.216Z,65.43
2018-04-02T01:36:31.797Z,57.97
2018-04-02T01:39:00.257Z,58.22
2018-04-02T01:41:28.839Z,71.65
2018-04-02T01:44:03.959Z,62.10
2018-04-02T01:46:32.564Z,61.45
2018-04-02T01:49:01.727Z,61.15
2018-04-02T01:51:30.341Z,60.85
2018-04-02T01:53:59.554Z,65.80
2018-04-02T01:56:28.039Z,68.37
2018-04-02T01:58:56.442Z,59.65
2018-04-02T02:01:24.863Z,63.13
2018-04-02T02:03:54.096Z,67.15
2018-04-02T02:06:23.135Z,71.65
2018-04-02T02:08:51.757Z,61.37
2018-04-02T02:11:20.169Z,62.67
2018-04-02T02:13:48.603Z,70.90
2018-04-02T02:16:17.111Z,73.28
2018-04-02T02:18:45.511Z,70.32
2018-04-02T02:21:14.059Z,76.05
2018-04-02T02:23:42.555Z,72.55
2018-04-02T02:26:10.995Z,72.87
2018-04-02T02:28:39.416Z,76.80
2018-04-02T02:31:07.980Z,73.70
2018-04-02T02:33:37.114Z,67.07
2018-04-02T02:36:05.488Z,73.90
2018-04-02T02:38:34.141Z,67.20
2018-04-02T02:41:02.612Z,71.60
2018-04-02T02:43:31.200Z,67.80
2018-04-02T02:45:59.643Z,69.75
2018-04-02T02:48:28.059Z,65.28
2018-04-02T02:50:56.658Z,70.75
2018-04-02T02:53:25.231Z,73.22
2018-04-02T02:55:54.409Z,74.22
2018-04-02T02:58:22.811Z,67.68
2018-04-02T03:00:51.227Z,68.78
2018-04-02T03:03:19.642Z,71.60
2018-04-02T03:05:48.852Z,71.03
2018-04-02T03:08:18.083Z,77.53
2018-04-02T03:10:46.554Z,69.53
2018-04-02T03:13:14.968Z,69.55
2018-04-02T03:15:43.420Z,68.20
2018-04-02T03:18:12.387Z,75.90
2018-04-02T03:20:40.801Z,71.40
2018-04-02T03:23:09.182Z,77.90
2018-04-02T03:25:37.833Z,75.30
2018-04-02T03:28:06.202Z,70.35
2018-04-02T03:30:35.418Z,74.85
2018-04-02T03:33:03.884Z,76.87
2018-04-02T03:35:33.052Z,77.20
2018-04-02T03:38:01.665Z,72.05
2018-04-02T03:40:31.069Z,75.90
2018-04-02T03:43:00.366Z,70.37
2018-04-02T03:45:29.587Z,74.43
2018-04-02T03:47:58.073Z,77.15
2018-04-02T03:50:26.633Z,82.20
2018-04-02T03:52:55.084Z,74.32
2018-04-02T03:55:23.594Z,69.57
2018-04-02T03:57:52.048Z,68.22
2018-04-02T04:00:21.215Z,81.18
2018-04-02T04:02:49.625Z,74.82
2018-04-02T04:05:17.984Z,69.57
2018-04-02T04:07:46.379Z,77.65
2018-04-02T04:10:15.534Z,77.35
2018-04-02T04:12:44.085Z,81.40
2018-04-02T04:15:12.945Z,74.37
2018-04-02T04:17:41.455Z,79.55
2018-04-02T04:20:09.835Z,75.12
2018-04-02T04:22:39.018Z,76.50
2018-04-02T04:25:08.214Z,81.55
2018-04-02T04:27:36.703Z,89.85
2018-04-02T04:30:06.005Z,82.12
2018-04-02T04:32:35.162Z,73.18
2018-04-02T04:35:03.576Z,76.95
2018-04-02T04:37:32.742Z,74.93
2018-04-02T04:40:01.158Z,69.50
2018-04-02T04:42:29.558Z,76.50
2018-04-02T04:44:57.969Z,66.37
2018-04-02T04:47:26.370Z,70.85
2018-04-02T04:49:54.766Z,72.62
2018-04-02T04:52:23.986Z,83.53
2018-04-02T04:54:52.430Z,72.30
2018-04-02T04:57:20.977Z,73.55
2018-04-02T04:59:49.323Z,83.68
2018-04-02T05:02:17.899Z,82.37
2018-04-02T05:04:46.303Z,82.62
2018-04-02T05:07:14.699Z,74.55
2018-04-02T05:09:43.063Z,90.93
2018-04-02T05:12:11.510Z,83.72
2018-04-02T05:14:39.886Z,77.03
2018-04-02T05:17:09.102Z,77.72
2018-04-02T05:19:37.472Z,78.05
2018-04-02T05:22:05.953Z,80.90
2018-04-02T05:24:34.537Z,72.03
2018-04-02T05:27:02.926Z,73.50
2018-04-02T05:29:31.324Z,77.60
2018-04-02T05:31:59.740Z,69.78
2018-04-02T05:34:28.902Z,84.43
2018-04-02T05:36:57.303Z,96.45
2018-04-02T05:39:26.019Z,78.15
2018-04-02T05:41:55.163Z,79.12
2018-04-02T05:44:23.561Z,82.78
2018-04-02T05:46:51.951Z,80.22
2018-04-02T05:49:20.337Z,81.32
2018-04-02T05:51:48.748Z,72.68
2018-04-02T05:54:17.123Z,75.60
2018-04-02T05:56:45.540Z,72.18
2018-04-02T05:59:13.966Z,79.87
2018-04-02T06:01:43.272Z,77.75
2018-04-02T06:04:11.858Z,74.20
2018-04-02T06:06:41.158Z,70.62
2018-04-02T06:09:09.542Z,77.60
2018-04-02T06:11:38.117Z,77.37
2018-04-02T06:14:06.529Z,73.35
2018-04-02T06:16:35.100Z,72.12
2018-04-02T06:19:03.465Z,67.35
2018-04-02T06:21:32.041Z,69.32
2018-04-02T06:24:01.292Z,70.82
2018-04-02T06:26:29.687Z,65.10
2018-04-02T06:28:58.080Z,72.62
2018-04-02T06:31:27.310Z,70.55
2018-04-02T06:33:55.709Z,69.78
2018-04-02T06:36:24.170Z,64.35
2018-04-02T06:38:52.737Z,65.68
2018-04-02T06:41:22.139Z,62.33
2018-04-02T06:43:51.730Z,71.32
2018-04-02T06:46:21.060Z,66.68
2018-04-02T06:48:49.626Z,69.60
2018-04-02T06:51:18.931Z,65.12
2018-04-02T06:53:47.513Z,70.07
2018-04-02T06:56:16.093Z,72.43
2018-04-02T06:58:45.269Z,65.90
2018-04-02T07:01:13.787Z,68.45
2018-04-02T07:03:42.354Z,68.45
2018-04-02T07:06:10.854Z,71.82
2018-04-02T07:08:39.238Z,72.82
2018-04-02T07:11:07.955Z,69.97
2018-04-02T07:13:36.314Z,71.25
2018-04-02T07:16:04.860Z,71.30
2018-04-02T07:18:34.264Z,71.18
2018-04-02T07:21:02.635Z,67.25
2018-04-02T07:23:31.940Z,66.72
2018-04-02T07:26:01.123Z,68.20
2018-04-02T07:28:30.267Z,69.43
2018-04-02T07:30:58.819Z,68.45
2018-04-02T07:33:27.403Z,67.15
2018-04-02T07:35:56.702Z,73.55
2018-04-02T07:38:26.005Z,69.60
2018-04-02T07:40:54.440Z,69.03
2018-04-02T07:43:22.848Z,69.87
2018-04-02T07:45:52.075Z,67.75
2018-04-02T07:48:20.510Z,69.37
2018-04-02T07:50:49.042Z,67.60
2018-04-02T07:53:17.458Z,64.95
2018-04-02T07:55:47.445Z,58.65
2018-04-02T07:58:15.835Z,64.10
2018-04-02T08:00:44.376Z,61.35
2018-04-02T08:03:13.673Z,67.45
2018-04-02T08:05:42.052Z,66.05
2018-04-02T08:08:11.191Z,66.90
2018-04-02T08:10:39.601Z,63.95
2018-04-02T08:13:08.798Z,64.17
2018-04-02T08:15:38.124Z,59.20
2018-04-02T08:18:07.480Z,58.97
2018-04-02T08:20:35.863Z,55.73
2018-04-02T08:23:04.385Z,57.80
2018-04-02T08:25:33.954Z,56.63
2018-04-02T08:28:02.333Z,57.83
2018-04-02T08:30:30.863Z,55.63
2018-04-02T08:32:59.298Z,56.13
2018-04-02T08:35:27.815Z,56.23
2018-04-02T08:37:56.227Z,57.60
2018-04-02T08:40:24.679Z,59.73
2018-04-02T08:42:53.209Z,65.37
2018-04-02T08:45:21.573Z,56.53
2018-04-02T08:47:50.017Z,61.40
2018-04-02T08:50:22.881Z,62.53
2018-04-02T08:52:51.390Z,55.10
2018-04-02T08:55:19.766Z,62.00
2018-04-02T08:57:48.138Z,65.20
2018-04-02T09:00:16.577Z,71.50
2018-04-02T09:02:45.094Z,76.03
2018-04-02T09:05:14.315Z,78.93
2018-04-02T09:07:42.880Z,83.67
2018-04-02T09:10:11.356Z,83.20
2018-04-02T09:12:40.555Z,84.40
2018-04-02T09:15:09.880Z,84.17
2018-04-02T09:17:38.437Z,81.60
2018-04-02T09:20:07.018Z,84.50
2018-04-02T09:22:36.326Z,83.77
2018-04-02T09:25:04.733Z,85.43
2018-04-02T09:27:33.283Z,82.57
2018-04-02T09:30:01.869Z,83.00
2018-04-02T09:32:30.277Z,80.07
2018-04-02T09:34:58.745Z,84.97
2018-04-02T09:37:27.311Z,80.00
2018-04-02T09:39:55.754Z,87.00
2018-04-02T09:42:24.264Z,84.97
2018-04-02T09:44:52.768Z,84.23
2018-04-02T09:47:21.331Z,82.80
2018-04-02T09:49:49.745Z,81.87
2018-04-02T09:52:18.295Z,84.83
2018-04-02T09:54:46.750Z,91.00
2018-04-02T09:57:16.075Z,85.13
2018-04-02T09:59:44.566Z,81.97
2018-04-02T10:02:13.713Z,84.30
2018-04-02T10:04:43.738Z,83.53
2018-04-02T10:07:12.805Z,79.93
2018-04-02T10:09:41.253Z,74.27
2018-04-02T10:12:09.687Z,80.67
2018-04-02T10:14:38.098Z,77.67
2018-04-02T10:17:06.507Z,78.07
2018-04-02T10:19:34.956Z,71.57
2018-04-02T10:22:03.410Z,72.30
2018-04-02T10:24:31.841Z,80.23
2018-04-02T10:27:00.267Z,68.60
2018-04-02T10:29:28.656Z,70.93
2018-04-02T10:31:57.080Z,72.83
2018-04-02T10:34:25.523Z,57.13
2018-04-02T10:36:54.703Z,61.93
2018-04-02T10:39:23.124Z,63.57
2018-04-02T10:41:51.520Z,62.10
2018-04-02T10:44:20.918Z,60.50
2018-04-02T10:46:49.338Z,60.70
2018-04-02T10:49:17.910Z,59.13
2018-04-02T10:51:48.055Z,62.00
2018-04-02T10:54:16.445Z,60.77
2018-04-02T10:56:44.894Z,61.07
2018-04-02T10:59:14.096Z,66.60
2018-04-02T11:01:42.521Z,64.27
2018-04-02T11:04:10.976Z,66.23
2018-04-02T11:06:40.166Z,72.40
2018-04-02T11:09:08.568Z,69.83
2018-04-02T11:11:37.745Z,60.93
2018-04-02T11:14:06.149Z,62.40
2018-04-02T11:16:34.602Z,62.97
2018-04-02T11:19:03.027Z,60.53
2018-04-02T11:21:31.431Z,66.87
2018-04-02T11:23:59.884Z,60.03
2018-04-02T11:26:28.301Z,54.70
2018-04-02T11:28:56.806Z,56.80
2018-04-02T11:31:25.982Z,54.87
2018-04-02T11:33:54.389Z,58.47
2018-04-02T11:36:23.585Z,59.57
2018-04-02T11:38:52.799Z,56.73
2018-04-02T11:41:21.203Z,53.80
2018-04-02T11:43:49.693Z,52.47
2018-04-02T11:46:18.191Z,48.10
2018-04-02T11:48:46.682Z,47.07
2018-04-02T11:51:15.158Z,44.40
2018-04-02T11:53:43.555Z,47.30
2018-04-02T11:56:11.945Z,43.80
2018-04-02T11:58:41.076Z,45.10
2018-04-02T12:01:09.516Z,42.37
2018-04-02T12:03:37.883Z,43.80
2018-04-02T12:06:06.382Z,42.03
2018-04-02T12:08:35.524Z,44.43
2018-04-02T12:11:03.935Z,42.97
2018-04-02T12:13:32.547Z,43.83
2018-04-02T12:16:01.771Z,42.90
2018-04-02T12:18:30.188Z,48.93
2018-04-02T12:20:59.403Z,44.30
2018-04-02T12:23:27.807Z,47.43
2018-04-02T12:25:56.225Z,42.93
2018-04-02T12:28:24.698Z,39.57
2018-04-02T12:30:53.089Z,36.47
2018-04-02T12:33:21.516Z,36.30
2018-04-02T12:35:49.995Z,34.60
2018-04-02T12:38:18.888Z,36.90
2018-04-02T12:40:48.027Z,36.80
2018-04-02T12:43:16.484Z,35.47
2018-04-02T12:45:44.915Z,34.50
2018-04-02T12:48:13.291Z,36.20
2018-04-02T12:50:41.754Z,35.47
2018-04-02T12:53:10.138Z,33.47
2018-04-02T12:55:38.542Z,32.03
2018-04-02T12:58:06.952Z,31.63
2018-04-02T13:00:35.381Z,33.43
2018-04-02T13:03:03.803Z,32.00
2018-04-02T13:05:32.971Z,34.63
2018-04-02T13:08:01.355Z,30.53
2018-04-02T13:10:29.784Z,33.83
2018-04-02T13:12:58.198Z,29.17
2018-04-02T13:15:26.611Z,31.57
2018-04-02T13:17:55.816Z,30.60
2018-04-02T13:20:24.947Z,29.30
2018-04-02T13:22:53.379Z,24.73
2018-04-02T13:25:22.524Z,28.27
2018-04-02T13:27:50.925Z,30.53
2018-04-02T13:30:20.146Z,28.83
2018-04-02T13:32:49.066Z,29.40
2018-04-02T13:35:17.474Z,29.23
2018-04-02T13:37:45.911Z,25.03
2018-04-02T13:40:15.110Z,23.80
2018-04-02T13:42:44.248Z,26.83
2018-04-02T13:45:12.655Z,25.43
2018-04-02T13:47:41.102Z,28.33
2018-04-02T13:50:09.566Z,25.37
2018-04-02T13:52:37.943Z,27.53
2018-04-02T13:55:06.348Z,27.30
2018-04-02T13:57:34.752Z,28.73
2018-04-02T14:00:03.219Z,27.27
2018-04-02T14:02:32.500Z,26.93
2018-04-02T14:05:00.965Z,26.13
2018-04-02T14:07:29.524Z,23.90
2018-04-02T14:09:58.718Z,22.60
2018-04-02T14:12:27.099Z,22.60
2018-04-02T14:14:56.312Z,24.77
2018-04-02T14:17:24.697Z,24.10
2018-04-02T14:19:53.253Z,25.07
2018-04-02T14:22:22.422Z,23.87
2018-04-02T14:24:51.344Z,25.07
2018-04-02T14:27:20.538Z,24.37
2018-04-02T14:29:49.734Z,23.10
2018-04-02T14:32:19.139Z,21.70
2018-04-02T14:34:48.441Z,23.00
2018-04-02T14:37:17.574Z,21.77
2018-04-02T14:39:46.034Z,25.07
2018-04-02T14:42:14.430Z,21.10
2018-04-02T14:44:42.976Z,24.73
2018-04-02T14:47:12.167Z,27.57
2018-04-02T14:49:41.340Z,22.07
2018-04-02T14:52:09.954Z,23.93
2018-04-02T14:54:39.136Z,21.03
2018-04-02T14:57:08.454Z,24.77
2018-04-02T14:59:37.854Z,24.27
2018-04-02T15:02:07.460Z,21.53
2018-04-02T15:04:35.862Z,23.03
2018-04-02T15:07:04.255Z,20.63
2018-04-02T15:09:32.655Z,21.93
2018-04-02T15:12:01.183Z,20.57
2018-04-02T15:14:30.349Z,23.40
2018-04-02T15:16:58.962Z,24.67
2018-04-02T15:19:27.344Z,23.30
2018-04-02T15:21:57.048Z,23.83
2018-04-02T15:24:26.221Z,23.07
2018-04-02T15:26:56.122Z,21.67
2018-04-02T15:29:24.643Z,23.13
2018-04-02T15:31:53.809Z,20.67
2018-04-02T15:34:22.287Z,22.83
2018-04-02T15:36:50.796Z,23.77
2018-04-02T15:39:19.241Z,21.10
2018-04-02T15:41:48.415Z,21.67
2018-04-02T15:44:16.895Z,22.97
2018-04-02T15:46:45.441Z,22.67
2018-04-02T15:49:14.021Z,22.33
2018-04-02T15:51:42.462Z,22.10
2018-04-02T15:54:11.085Z,19.17
2018-04-02T15:56:39.536Z,20.43
2018-04-02T15:59:07.925Z,20.20
2018-04-02T16:01:37.658Z,20.57
2018-04-02T16:04:06.956Z,19.43
2018-04-02T16:06:35.542Z,21.97
2018-04-02T16:09:04.765Z,19.83
2018-04-02T16:11:33.318Z,21.27
2018-04-02T16:14:02.629Z,19.23
2018-04-02T16:16:31.121Z,21.33
2018-04-02T16:18:59.545Z,21.90
2018-04-02T16:21:28.164Z,22.47
2018-04-02T16:23:57.335Z,22.53
2018-04-02T16:26:25.745Z,19.30
2018-04-02T16:28:54.127Z,20.90
2018-04-02T16:31:22.596Z,16.60
2018-04-02T16:33:51.903Z,17.47
2018-04-02T16:36:20.306Z,18.40
2018-04-02T16:38:48.665Z,18.00
2018-04-02T16:41:17.086Z,19.50
2018-04-02T16:43:45.510Z,19.67
2018-04-02T16:46:14.674Z,19.63
2018-04-02T16:48:43.478Z,15.90
2018-04-02T16:51:12.699Z,18.93
2018-04-02T16:53:41.996Z,20.07
2018-04-02T16:56:10.584Z,27.80
2018-04-02T16:58:39.164Z,36.43
2018-04-02T17:01:08.461Z,27.77
2018-04-02T17:03:36.937Z,31.13
2018-04-02T17:06:06.254Z,27.57
2018-04-02T17:08:34.641Z,27.60
2018-04-02T17:11:03.106Z,27.90
2018-04-02T17:13:31.507Z,25.27
2018-04-02T17:15:59.979Z,22.63
2018-04-02T17:18:28.390Z,19.73
2018-04-02T17:20:56.786Z,16.70
2018-04-02T17:23:25.197Z,16.47
2018-04-02T17:25:54.516Z,14.57
2018-04-02T17:28:23.078Z,19.20
2018-04-02T17:30:51.935Z,16.47
2018-04-02T17:33:20.551Z,16.20
2018-04-02T17:35:49.774Z,16.23
2018-04-02T17:38:18.232Z,17.00
2018-04-02T17:40:47.530Z,14.30
2018-04-02T17:43:16.677Z,15.80
2018-04-02T17:45:45.093Z,17.00
2018-04-02T17:48:14.408Z,16.47
2018-04-02T17:50:43.600Z,14.83
2018-04-02T17:53:12.010Z,16.37
2018-04-02T17:55:40.378Z,16.60
2018-04-02T17:58:08.799Z,14.50
2018-04-02T18:00:37.221Z,17.20
2018-04-02T18:03:05.659Z,16.30
2018-04-02T18:05:34.106Z,15.23
2018-04-02T18:08:02.536Z,16.37
2018-04-02T18:10:31.140Z,17.07
2018-04-02T18:12:59.725Z,19.47
2018-04-02T18:15:28.311Z,19.77
2018-04-02T18:17:56.826Z,19.90
2018-04-02T18:20:25.275Z,17.13
2018-04-02T18:22:53.771Z,14.10
2018-04-02T18:25:22.174Z,12.43
2018-04-02T18:27:50.608Z,12.57
2018-04-02T18:30:19.917Z,15.90
2018-04-02T18:32:48.438Z,13.17
2018-04-02T18:35:16.994Z,14.37
2018-04-02T18:37:45.560Z,14.77
2018-04-02T18:40:13.975Z,13.63
2018-04-02T18:42:42.412Z,12.87
2018-04-02T18:45:10.845Z,14.07
2018-04-02T18:47:39.304Z,13.83
2018-04-02T18:50:07.717Z,13.73
2018-04-02T18:52:36.095Z,13.30
2018-04-02T18:55:04.493Z,16.30
2018-04-02T18:57:33.732Z,14.27
2018-04-02T19:00:02.148Z,14.33
2018-04-02T19:02:30.590Z,13.20
2018-04-02T19:04:59.049Z,12.30
2018-04-02T19:07:28.178Z,13.13
2018-04-02T19:09:56.617Z,12.70
2018-04-02T19:12:25.841Z,14.37
2018-04-02T19:14:54.239Z,12.97
2018-04-02T19:17:22.621Z,11.53
2018-04-02T19:19:51.022Z,12.93
2018-04-02T19:22:19.444Z,13.30
2018-04-02T19:24:48.592Z,13.33
2018-04-02T19:27:17.027Z,13.30
2018-04-02T19:29:45.492Z,13.10
2018-04-02T19:32:14.722Z,13.47
2018-04-02T19:34:43.174Z,11.97
2018-04-02T19:37:11.623Z,11.20
2018-04-02T19:39:40.015Z,11.83
2018-04-02T19:42:08.410Z,13.53
2018-04-02T19:44:37.578Z,12.33
2018-04-02T19:47:06.033Z,8.87
2018-04-02T19:49:34.398Z,10.60
2018-04-02T19:52:02.764Z,14.73
2018-04-02T19:54:31.168Z,9.97
2018-04-02T19:56:59.580Z,11.83
2018-04-02T19:59:28.192Z,7.60
2018-04-02T20:01:58.717Z,14.33
2018-04-02T20:04:27.524Z,8.50
2018-04-02T20:06:56.088Z,11.03
2018-04-02T20:09:25.297Z,10.43
2018-04-02T20:11:53.967Z,7.60
2018-04-02T20:14:22.340Z,9.07
2018-04-02T20:16:51.514Z,6.83
2018-04-02T20:19:19.918Z,7.47
2018-04-02T20:21:49.327Z,8.07
2018-04-02T20:24:17.818Z,9.50
2018-04-02T20:26:46.305Z,8.07
2018-04-02T20:29:14.705Z,8.30
2018-04-02T20:31:43.108Z,7.30
2018-04-02T20:34:11.727Z,6.60
2018-04-02T20:36:41.039Z,6.00
2018-04-02T20:39:09.612Z,6.40
2018-04-02T20:41:38.031Z,9.30
2018-04-02T20:44:06.452Z,7.83
2018-04-02T20:46:35.717Z,8.47
2018-04-02T20:49:04.082Z,6.73
2018-04-02T20:51:32.495Z,6.20
2018-04-02T20:54:00.979Z,8.70
2018-04-02T20:56:29.375Z,6.30
2018-04-02T20:58:57.739Z,5.47
2018-04-02T21:01:26.135Z,7.07
2018-04-02T21:03:55.462Z,5.80
2018-04-02T21:06:23.934Z,5.37
2018-04-02T21:08:52.309Z,6.70
2018-04-02T21:11:20.832Z,6.27
2018-04-02T21:13:49.224Z,7.63
2018-04-02T21:16:17.841Z,7.27
2018-04-02T21:18:46.285Z,6.33
2018-04-02T21:21:14.697Z,7.40
2018-04-02T21:23:43.920Z,7.63
2018-04-02T21:26:12.325Z,5.93
2018-04-02T21:28:40.755Z,6.80
2018-04-02T21:31:09.870Z,6.37
2018-04-02T21:33:39.032Z,6.47
2018-04-02T21:36:07.475Z,7.67
2018-04-02T21:38:35.909Z,6.87
2018-04-02T21:41:05.071Z,7.77
2018-04-02T21:43:33.963Z,5.83
2018-04-02T21:46:02.382Z,6.47
2018-04-02T21:48:31.675Z,7.03
2018-04-02T21:51:00.843Z,5.70
2018-04-02T21:53:29.220Z,5.60
2018-04-02T21:55:57.841Z,7.67
2018-04-02T21:58:26.316Z,6.50
2018-04-02T22:00:55.614Z,7.00
2018-04-02T22:03:24.921Z,6.30
2018-04-02T22:05:53.499Z,6.37
2018-04-02T22:08:22.710Z,5.73
2018-04-02T22:10:51.103Z,6.20
2018-04-02T22:13:19.659Z,10.73
2018-04-02T22:15:48.861Z,6.10
2018-04-02T22:18:17.283Z,6.87
2018-04-02T22:20:45.642Z,7.07
2018-04-02T22:23:14.078Z,5.63
2018-04-02T22:25:42.453Z,8.03
2018-04-02T22:28:10.928Z,8.43
2018-04-02T22:30:40.102Z,6.33
2018-04-02T22:33:08.536Z,8.90
2018-04-02T22:35:36.952Z,5.87
2018-04-02T22:38:05.319Z,6.80
2018-04-02T22:40:33.799Z,6.87
2018-04-02T22:43:02.656Z,8.07
2018-04-02T22:45:32.109Z,6.80
2018-04-02T22:48:01.377Z,5.77
2018-04-02T22:50:29.857Z,6.23
2018-04-02T22:52:58.246Z,6.97
2018-04-02T22:55:26.715Z,7.40
2018-04-02T22:57:55.124Z,6.77
2018-04-02T23:00:23.518Z,5.23
2018-04-02T23:02:51.993Z,7.83
2018-04-02T23:05:21.201Z,9.60
2018-04-02T23:07:50.436Z,7.20
2018-04-02T23:10:19.646Z,7.07
2018-04-02T23:12:48.068Z,6.57
2018-04-02T23:15:16.792Z,9.10
2018-04-02T23:17:45.927Z,6.53
2018-04-02T23:20:14.296Z,6.60
2018-04-02T23:22:53.706Z,7.40
2018-04-02T23:25:22.894Z,8.27
2018-04-02T23:27:52.096Z,7.27
2018-04-02T23:30:21.256Z,6.07
2018-04-02T23:32:49.667Z,10.33
2018-04-02T23:35:18.824Z,6.17
2018-04-02T23:37:48.010Z,6.00
2018-04-02T23:40:16.431Z,7.33
2018-04-02T23:42:45.622Z,6.67
2018-04-02T23:45:14.046Z,7.30
2018-04-02T23:47:42.444Z,6.83
2018-04-02T23:50:10.899Z,8.40
2018-04-02T23:52:39.383Z,8.23
2018-04-02T23:55:07.794Z,6.00
2018-04-02T23:57:37.079Z,5.27
